sensor_id;sensor_type;location;lat;lon;timestamp;P1;durP1;ratioP1;P2;durP2;ratioP2
8100;SDS011;4093;53.470;9.832;2023-05-10T00:00:14;4.53;;;3.60;;
8100;SDS011;4093;53.470;9.832;2023-05-10T00:02:43;3.13;;;2.83;;
8100;SDS011;4093;53.470;9.832;2023-05-10T00:05:12;5.37;;;3.20;;
8100;SDS011;4093;53.470;9.832;2023-05-10T00:07:40;3.60;;;3.23;;
8100;SDS011;4093;53.470;9.832;2023-05-10T00:10:10;3.45;;;3.10;;
8100;SDS011;4093;53.470;9.832;2023-05-10T00:12:39;3.90;;;3.20;;
8100;SDS011;4093;53.470;9.832;2023-05-10T00:15:07;5.22;;;3.38;;
8100;SDS011;4093;53.470;9.832;2023-05-10T00:17:35;3.40;;;3.10;;
8100;SDS011;4093;53.470;9.832;2023-05-10T00:20:04;3.50;;;3.20;;
8100;SDS011;4093;53.470;9.832;2023-05-10T00:22:34;4.23;;;3.43;;
8100;SDS011;4093;53.470;9.832;2023-05-10T00:25:02;4.18;;;3.10;;
8100;SDS011;4093;53.470;9.832;2023-05-10T00:27:30;4.00;;;3.30;;
8100;SDS011;4093;53.470;9.832;2023-05-10T00:29:57;7.13;;;3.30;;
8100;SDS011;4093;53.470;9.832;2023-05-10T00:32:25;3.60;;;3.30;;
8100;SDS011;4093;53.470;9.832;2023-05-10T00:34:53;3.65;;;3.30;;
8100;SDS011;4093;53.470;9.832;2023-05-10T00:37:21;3.90;;;3.50;;
8100;SDS011;4093;53.470;9.832;2023-05-10T00:39:50;4.67;;;3.43;;
8100;SDS011;4093;53.470;9.832;2023-05-10T00:42:18;5.07;;;3.17;;
8100;SDS011;4093;53.470;9.832;2023-05-10T00:44:45;5.33;;;3.60;;
8100;SDS011;4093;53.470;9.832;2023-05-10T00:47:13;5.67;;;3.73;;
8100;SDS011;4093;53.470;9.832;2023-05-10T00:49:41;4.33;;;3.70;;
8100;SDS011;4093;53.470;9.832;2023-05-10T00:52:09;4.97;;;3.40;;
8100;SDS011;4093;53.470;9.832;2023-05-10T00:54:37;4.13;;;3.73;;
8100;SDS011;4093;53.470;9.832;2023-05-10T00:57:06;4.60;;;3.50;;
8100;SDS011;4093;53.470;9.832;2023-05-10T00:59:34;3.90;;;3.50;;
8100;SDS011;4093;53.470;9.832;2023-05-10T01:02:02;5.53;;;3.60;;
8100;SDS011;4093;53.470;9.832;2023-05-10T01:04:30;4.00;;;3.53;;
8100;SDS011;4093;53.470;9.832;2023-05-10T01:06:57;4.17;;;3.60;;
8100;SDS011;4093;53.470;9.832;2023-05-10T01:09:25;4.67;;;3.60;;
8100;SDS011;4093;53.470;9.832;2023-05-10T01:11:53;5.17;;;3.90;;
8100;SDS011;4093;53.470;9.832;2023-05-10T01:14:23;4.00;;;3.60;;
8100;SDS011;4093;53.470;9.832;2023-05-10T01:16:53;4.77;;;3.70;;
8100;SDS011;4093;53.470;9.832;2023-05-10T01:19:22;4.60;;;3.70;;
8100;SDS011;4093;53.470;9.832;2023-05-10T01:21:53;5.13;;;3.50;;
8100;SDS011;4093;53.470;9.832;2023-05-10T01:27:34;5.00;;;3.70;;
8100;SDS011;4093;53.470;9.832;2023-05-10T01:30:30;3.97;;;3.67;;
8100;SDS011;4093;53.470;9.832;2023-05-10T01:33:11;6.77;;;3.87;;
8100;SDS011;4093;53.470;9.832;2023-05-10T01:35:47;3.90;;;3.50;;
8100;SDS011;4093;53.470;9.832;2023-05-10T01:38:22;7.13;;;3.73;;
8100;SDS011;4093;53.470;9.832;2023-05-10T01:40:59;4.80;;;3.97;;
8100;SDS011;4093;53.470;9.832;2023-05-10T01:43:37;6.80;;;4.20;;
8100;SDS011;4093;53.470;9.832;2023-05-10T01:46:14;8.20;;;3.90;;
8100;SDS011;4093;53.470;9.832;2023-05-10T01:48:47;5.30;;;3.93;;
8100;SDS011;4093;53.470;9.832;2023-05-10T01:51:19;5.37;;;4.23;;
8100;SDS011;4093;53.470;9.832;2023-05-10T01:53:51;5.87;;;4.17;;
8100;SDS011;4093;53.470;9.832;2023-05-10T01:56:22;5.77;;;4.37;;
8100;SDS011;4093;53.470;9.832;2023-05-10T01:58:53;4.37;;;3.93;;
8100;SDS011;4093;53.470;9.832;2023-05-10T02:01:22;4.10;;;3.70;;
8100;SDS011;4093;53.470;9.832;2023-05-10T02:03:53;5.13;;;3.90;;
8100;SDS011;4093;53.470;9.832;2023-05-10T02:06:22;5.53;;;3.50;;
8100;SDS011;4093;53.470;9.832;2023-05-10T02:08:51;6.00;;;4.03;;
8100;SDS011;4093;53.470;9.832;2023-05-10T02:11:20;9.00;;;3.63;;
8100;SDS011;4093;53.470;9.832;2023-05-10T02:13:50;6.07;;;4.10;;
8100;SDS011;4093;53.470;9.832;2023-05-10T02:16:20;4.67;;;3.93;;
8100;SDS011;4093;53.470;9.832;2023-05-10T02:18:53;4.43;;;4.03;;
8100;SDS011;4093;53.470;9.832;2023-05-10T02:21:23;5.20;;;4.27;;
8100;SDS011;4093;53.470;9.832;2023-05-10T02:23:52;5.40;;;4.40;;
8100;SDS011;4093;53.470;9.832;2023-05-10T02:26:22;5.17;;;4.10;;
8100;SDS011;4093;53.470;9.832;2023-05-10T02:28:53;5.23;;;4.43;;
8100;SDS011;4093;53.470;9.832;2023-05-10T02:31:21;4.53;;;3.90;;
8100;SDS011;4093;53.470;9.832;2023-05-10T02:33:50;4.80;;;4.30;;
8100;SDS011;4093;53.470;9.832;2023-05-10T02:36:20;4.97;;;4.20;;
8100;SDS011;4093;53.470;9.832;2023-05-10T02:38:49;4.40;;;4.00;;
8100;SDS011;4093;53.470;9.832;2023-05-10T02:41:19;5.53;;;4.53;;
8100;SDS011;4093;53.470;9.832;2023-05-10T02:43:49;5.30;;;4.37;;
8100;SDS011;4093;53.470;9.832;2023-05-10T02:46:18;8.97;;;4.47;;
8100;SDS011;4093;53.470;9.832;2023-05-10T02:48:45;8.57;;;4.80;;
8100;SDS011;4093;53.470;9.832;2023-05-10T02:51:13;4.67;;;4.27;;
8100;SDS011;4093;53.470;9.832;2023-05-10T02:53:46;5.87;;;4.67;;
8100;SDS011;4093;53.470;9.832;2023-05-10T02:56:20;4.70;;;4.20;;
8100;SDS011;4093;53.470;9.832;2023-05-10T02:58:52;5.43;;;4.33;;
8100;SDS011;4093;53.470;9.832;2023-05-10T03:01:19;5.37;;;4.20;;
8100;SDS011;4093;53.470;9.832;2023-05-10T03:03:47;5.47;;;4.30;;
8100;SDS011;4093;53.470;9.832;2023-05-10T03:06:15;5.43;;;4.43;;
8100;SDS011;4093;53.470;9.832;2023-05-10T03:08:43;5.47;;;4.27;;
8100;SDS011;4093;53.470;9.832;2023-05-10T03:11:20;5.40;;;4.10;;
8100;SDS011;4093;53.470;9.832;2023-05-10T03:14:04;4.53;;;3.93;;
8100;SDS011;4093;53.470;9.832;2023-05-10T03:16:40;4.70;;;4.23;;
8100;SDS011;4093;53.470;9.832;2023-05-10T03:19:15;5.63;;;4.73;;
8100;SDS011;4093;53.470;9.832;2023-05-10T03:21:47;6.67;;;4.30;;
8100;SDS011;4093;53.470;9.832;2023-05-10T03:24:18;8.40;;;4.73;;
8100;SDS011;4093;53.470;9.832;2023-05-10T03:26:50;5.13;;;4.20;;
8100;SDS011;4093;53.470;9.832;2023-05-10T03:29:22;5.03;;;4.40;;
8100;SDS011;4093;53.470;9.832;2023-05-10T03:31:53;7.47;;;4.20;;
8100;SDS011;4093;53.470;9.832;2023-05-10T03:34:23;8.13;;;4.97;;
8100;SDS011;4093;53.470;9.832;2023-05-10T03:36:50;5.10;;;4.60;;
8100;SDS011;4093;53.470;9.832;2023-05-10T03:39:18;6.17;;;4.50;;
8100;SDS011;4093;53.470;9.832;2023-05-10T03:41:47;5.77;;;5.03;;
8100;SDS011;4093;53.470;9.832;2023-05-10T03:44:16;5.40;;;4.30;;
8100;SDS011;4093;53.470;9.832;2023-05-10T03:46:43;6.17;;;4.50;;
8100;SDS011;4093;53.470;9.832;2023-05-10T03:49:11;5.27;;;4.50;;
8100;SDS011;4093;53.470;9.832;2023-05-10T03:51:39;4.60;;;4.20;;
8100;SDS011;4093;53.470;9.832;2023-05-10T03:54:07;4.83;;;4.33;;
8100;SDS011;4093;53.470;9.832;2023-05-10T03:56:34;5.90;;;4.47;;
8100;SDS011;4093;53.470;9.832;2023-05-10T03:59:02;5.33;;;4.63;;
8100;SDS011;4093;53.470;9.832;2023-05-10T04:01:34;4.77;;;4.30;;
8100;SDS011;4093;53.470;9.832;2023-05-10T04:04:02;5.50;;;4.60;;
8100;SDS011;4093;53.470;9.832;2023-05-10T04:06:30;6.33;;;5.07;;
8100;SDS011;4093;53.470;9.832;2023-05-10T04:08:58;6.87;;;4.53;;
8100;SDS011;4093;53.470;9.832;2023-05-10T04:11:30;5.23;;;4.30;;
8100;SDS011;4093;53.470;9.832;2023-05-10T04:13:57;5.33;;;4.60;;
8100;SDS011;4093;53.470;9.832;2023-05-10T04:16:25;5.37;;;4.60;;
8100;SDS011;4093;53.470;9.832;2023-05-10T04:18:54;5.67;;;4.13;;
8100;SDS011;4093;53.470;9.832;2023-05-10T04:21:22;6.90;;;4.67;;
8100;SDS011;4093;53.470;9.832;2023-05-10T04:23:50;8.07;;;4.87;;
8100;SDS011;4093;53.470;9.832;2023-05-10T04:26:17;5.77;;;4.87;;
8100;SDS011;4093;53.470;9.832;2023-05-10T04:28:45;4.90;;;3.90;;
8100;SDS011;4093;53.470;9.832;2023-05-10T04:31:13;5.30;;;4.53;;
8100;SDS011;4093;53.470;9.832;2023-05-10T04:33:40;5.27;;;4.40;;
8100;SDS011;4093;53.470;9.832;2023-05-10T04:36:09;5.70;;;4.70;;
8100;SDS011;4093;53.470;9.832;2023-05-10T04:38:37;5.13;;;4.60;;
8100;SDS011;4093;53.470;9.832;2023-05-10T04:41:05;4.33;;;3.93;;
8100;SDS011;4093;53.470;9.832;2023-05-10T04:43:34;4.67;;;4.27;;
8100;SDS011;4093;53.470;9.832;2023-05-10T04:46:02;5.13;;;4.50;;
8100;SDS011;4093;53.470;9.832;2023-05-10T04:48:30;7.50;;;4.47;;
8100;SDS011;4093;53.470;9.832;2023-05-10T04:50:58;5.47;;;4.77;;
8100;SDS011;4093;53.470;9.832;2023-05-10T04:53:27;5.90;;;4.70;;
8100;SDS011;4093;53.470;9.832;2023-05-10T04:55:55;9.47;;;4.40;;
8100;SDS011;4093;53.470;9.832;2023-05-10T04:58:22;5.63;;;4.60;;
8100;SDS011;4093;53.470;9.832;2023-05-10T05:00:50;7.00;;;4.87;;
8100;SDS011;4093;53.470;9.832;2023-05-10T05:03:18;9.20;;;5.10;;
8100;SDS011;4093;53.470;9.832;2023-05-10T05:05:45;6.23;;;4.73;;
8100;SDS011;4093;53.470;9.832;2023-05-10T05:08:13;7.23;;;4.90;;
8100;SDS011;4093;53.470;9.832;2023-05-10T05:10:42;7.90;;;4.40;;
8100;SDS011;4093;53.470;9.832;2023-05-10T05:13:10;5.03;;;4.53;;
8100;SDS011;4093;53.470;9.832;2023-05-10T05:15:39;5.83;;;4.83;;
8100;SDS011;4093;53.470;9.832;2023-05-10T05:18:07;5.53;;;4.50;;
8100;SDS011;4093;53.470;9.832;2023-05-10T05:20:35;7.95;;;4.25;;
8100;SDS011;4093;53.470;9.832;2023-05-10T05:23:02;4.77;;;4.30;;
8100;SDS011;4093;53.470;9.832;2023-05-10T05:25:30;5.77;;;4.17;;
8100;SDS011;4093;53.470;9.832;2023-05-10T05:27:59;5.33;;;4.60;;
8100;SDS011;4093;53.470;9.832;2023-05-10T05:30:27;7.77;;;4.60;;
8100;SDS011;4093;53.470;9.832;2023-05-10T05:32:55;5.83;;;4.70;;
8100;SDS011;4093;53.470;9.832;2023-05-10T05:35:23;5.47;;;4.43;;
8100;SDS011;4093;53.470;9.832;2023-05-10T05:37:51;7.37;;;5.10;;
8100;SDS011;4093;53.470;9.832;2023-05-10T05:40:18;9.40;;;4.83;;
8100;SDS011;4093;53.470;9.832;2023-05-10T05:42:46;7.57;;;4.68;;
8100;SDS011;4093;53.470;9.832;2023-05-10T05:45:15;5.95;;;4.65;;
8100;SDS011;4093;53.470;9.832;2023-05-10T05:47:43;5.15;;;4.65;;
8100;SDS011;4093;53.470;9.832;2023-05-10T05:50:11;7.33;;;5.10;;
8100;SDS011;4093;53.470;9.832;2023-05-10T05:52:39;7.93;;;4.80;;
8100;SDS011;4093;53.470;9.832;2023-05-10T05:55:07;5.25;;;4.65;;
8100;SDS011;4093;53.470;9.832;2023-05-10T05:57:34;5.37;;;4.47;;
8100;SDS011;4093;53.470;9.832;2023-05-10T06:00:02;5.50;;;4.87;;
8100;SDS011;4093;53.470;9.832;2023-05-10T06:02:32;7.77;;;5.07;;
8100;SDS011;4093;53.470;9.832;2023-05-10T06:05:00;6.50;;;4.30;;
8100;SDS011;4093;53.470;9.832;2023-05-10T06:07:28;5.83;;;4.57;;
8100;SDS011;4093;53.470;9.832;2023-05-10T06:09:56;5.10;;;4.60;;
8100;SDS011;4093;53.470;9.832;2023-05-10T06:12:24;6.70;;;4.97;;
8100;SDS011;4093;53.470;9.832;2023-05-10T06:14:51;6.67;;;4.53;;
8100;SDS011;4093;53.470;9.832;2023-05-10T06:17:19;5.93;;;4.77;;
8100;SDS011;4093;53.470;9.832;2023-05-10T06:19:49;5.30;;;4.50;;
8100;SDS011;4093;53.470;9.832;2023-05-10T06:22:16;6.35;;;4.47;;
8100;SDS011;4093;53.470;9.832;2023-05-10T06:24:44;7.40;;;5.10;;
8100;SDS011;4093;53.470;9.832;2023-05-10T06:27:12;6.50;;;4.57;;
8100;SDS011;4093;53.470;9.832;2023-05-10T06:29:40;6.43;;;4.60;;
8100;SDS011;4093;53.470;9.832;2023-05-10T06:32:07;7.77;;;4.70;;
8100;SDS011;4093;53.470;9.832;2023-05-10T06:34:35;6.63;;;4.60;;
8100;SDS011;4093;53.470;9.832;2023-05-10T06:37:04;7.00;;;5.03;;
8100;SDS011;4093;53.470;9.832;2023-05-10T06:39:32;6.60;;;4.70;;
8100;SDS011;4093;53.470;9.832;2023-05-10T06:42:00;9.13;;;4.43;;
8100;SDS011;4093;53.470;9.832;2023-05-10T06:44:28;5.53;;;4.50;;
8100;SDS011;4093;53.470;9.832;2023-05-10T06:46:56;5.63;;;4.87;;
8100;SDS011;4093;53.470;9.832;2023-05-10T06:49:24;5.32;;;4.60;;
8100;SDS011;4093;53.470;9.832;2023-05-10T06:51:52;4.77;;;4.37;;
8100;SDS011;4093;53.470;9.832;2023-05-10T06:54:21;5.57;;;5.00;;
8100;SDS011;4093;53.470;9.832;2023-05-10T06:56:49;6.80;;;4.60;;
8100;SDS011;4093;53.470;9.832;2023-05-10T06:59:16;9.30;;;4.63;;
8100;SDS011;4093;53.470;9.832;2023-05-10T07:01:45;6.43;;;4.83;;
8100;SDS011;4093;53.470;9.832;2023-05-10T07:04:13;5.43;;;4.73;;
8100;SDS011;4093;53.470;9.832;2023-05-10T07:06:41;5.20;;;4.70;;
8100;SDS011;4093;53.470;9.832;2023-05-10T07:09:08;5.90;;;4.60;;
8100;SDS011;4093;53.470;9.832;2023-05-10T07:11:37;5.97;;;4.90;;
8100;SDS011;4093;53.470;9.832;2023-05-10T07:14:05;5.03;;;4.50;;
8100;SDS011;4093;53.470;9.832;2023-05-10T07:16:32;6.13;;;4.10;;
8100;SDS011;4093;53.470;9.832;2023-05-10T07:19:00;6.70;;;4.30;;
8100;SDS011;4093;53.470;9.832;2023-05-10T07:21:28;6.45;;;4.47;;
8100;SDS011;4093;53.470;9.832;2023-05-10T07:23:57;6.47;;;4.53;;
8100;SDS011;4093;53.470;9.832;2023-05-10T07:26:25;4.78;;;4.35;;
8100;SDS011;4093;53.470;9.832;2023-05-10T07:28:54;5.53;;;4.10;;
8100;SDS011;4093;53.470;9.832;2023-05-10T07:31:22;5.82;;;4.80;;
8100;SDS011;4093;53.470;9.832;2023-05-10T07:33:50;6.32;;;4.78;;
8100;SDS011;4093;53.470;9.832;2023-05-10T07:36:17;8.77;;;4.75;;
8100;SDS011;4093;53.470;9.832;2023-05-10T07:38:45;5.27;;;4.20;;
8100;SDS011;4093;53.470;9.832;2023-05-10T07:41:13;7.95;;;4.65;;
8100;SDS011;4093;53.470;9.832;2023-05-10T07:43:41;7.13;;;4.43;;
8100;SDS011;4093;53.470;9.832;2023-05-10T07:46:10;5.22;;;4.72;;
8100;SDS011;4093;53.470;9.832;2023-05-10T07:48:37;5.97;;;4.67;;
8100;SDS011;4093;53.470;9.832;2023-05-10T07:51:05;6.27;;;4.80;;
8100;SDS011;4093;53.470;9.832;2023-05-10T07:53:35;6.33;;;4.73;;
8100;SDS011;4093;53.470;9.832;2023-05-10T07:58:49;5.37;;;4.43;;
8100;SDS011;4093;53.470;9.832;2023-05-10T08:01:18;6.50;;;4.93;;
8100;SDS011;4093;53.470;9.832;2023-05-10T08:03:46;6.57;;;4.90;;
8100;SDS011;4093;53.470;9.832;2023-05-10T08:06:15;7.00;;;4.97;;
8100;SDS011;4093;53.470;9.832;2023-05-10T08:08:42;7.80;;;5.13;;
8100;SDS011;4093;53.470;9.832;2023-05-10T08:11:11;7.43;;;5.00;;
8100;SDS011;4093;53.470;9.832;2023-05-10T08:13:39;8.43;;;5.07;;
8100;SDS011;4093;53.470;9.832;2023-05-10T08:16:06;7.55;;;4.82;;
8100;SDS011;4093;53.470;9.832;2023-05-10T08:18:36;5.97;;;5.40;;
8100;SDS011;4093;53.470;9.832;2023-05-10T08:21:04;6.97;;;5.10;;
8100;SDS011;4093;53.470;9.832;2023-05-10T08:23:32;9.00;;;5.93;;
8100;SDS011;4093;53.470;9.832;2023-05-10T08:25:59;10.93;;;5.30;;
8100;SDS011;4093;53.470;9.832;2023-05-10T08:28:27;7.17;;;5.73;;
8100;SDS011;4093;53.470;9.832;2023-05-10T08:30:55;7.63;;;5.87;;
8100;SDS011;4093;53.470;9.832;2023-05-10T08:33:23;6.37;;;5.10;;
8100;SDS011;4093;53.470;9.832;2023-05-10T08:35:52;7.13;;;5.43;;
8100;SDS011;4093;53.470;9.832;2023-05-10T08:38:20;9.90;;;5.93;;
8100;SDS011;4093;53.470;9.832;2023-05-10T08:40:47;6.88;;;5.40;;
8100;SDS011;4093;53.470;9.832;2023-05-10T08:43:17;5.23;;;4.70;;
8100;SDS011;4093;53.470;9.832;2023-05-10T08:45:46;7.80;;;5.70;;
8100;SDS011;4093;53.470;9.832;2023-05-10T08:48:16;8.33;;;5.73;;
8100;SDS011;4093;53.470;9.832;2023-05-10T08:50:44;6.43;;;5.43;;
8100;SDS011;4093;53.470;9.832;2023-05-10T08:53:14;8.52;;;5.53;;
8100;SDS011;4093;53.470;9.832;2023-05-10T08:55:43;9.48;;;5.38;;
8100;SDS011;4093;53.470;9.832;2023-05-10T08:58:11;6.93;;;6.10;;
8100;SDS011;4093;53.470;9.832;2023-05-10T09:00:39;6.63;;;5.47;;
8100;SDS011;4093;53.470;9.832;2023-05-10T09:03:07;8.65;;;6.18;;
8100;SDS011;4093;53.470;9.832;2023-05-10T09:05:35;7.93;;;6.45;;
8100;SDS011;4093;53.470;9.832;2023-05-10T09:08:03;7.63;;;5.93;;
8100;SDS011;4093;53.470;9.832;2023-05-10T09:10:33;7.93;;;6.57;;
8100;SDS011;4093;53.470;9.832;2023-05-10T09:13:00;7.25;;;6.13;;
8100;SDS011;4093;53.470;9.832;2023-05-10T09:15:29;8.55;;;6.00;;
8100;SDS011;4093;53.470;9.832;2023-05-10T09:17:57;9.57;;;6.10;;
8100;SDS011;4093;53.470;9.832;2023-05-10T09:20:28;7.47;;;6.77;;
8100;SDS011;4093;53.470;9.832;2023-05-10T09:22:56;8.73;;;6.50;;
8100;SDS011;4093;53.470;9.832;2023-05-10T09:25:24;11.30;;;6.70;;
8100;SDS011;4093;53.470;9.832;2023-05-10T09:27:54;9.50;;;7.38;;
8100;SDS011;4093;53.470;9.832;2023-05-10T09:30:24;7.13;;;6.43;;
8100;SDS011;4093;53.470;9.832;2023-05-10T09:32:55;7.72;;;6.97;;
8100;SDS011;4093;53.470;9.832;2023-05-10T09:35:24;7.18;;;6.18;;
8100;SDS011;4093;53.470;9.832;2023-05-10T09:37:56;9.63;;;8.13;;
8100;SDS011;4093;53.470;9.832;2023-05-10T09:40:25;9.00;;;7.85;;
8100;SDS011;4093;53.470;9.832;2023-05-10T09:42:56;8.10;;;7.40;;
8100;SDS011;4093;53.470;9.832;2023-05-10T09:45:26;7.88;;;6.93;;
8100;SDS011;4093;53.470;9.832;2023-05-10T09:47:54;12.90;;;8.23;;
8100;SDS011;4093;53.470;9.832;2023-05-10T09:50:22;11.20;;;9.20;;
8100;SDS011;4093;53.470;9.832;2023-05-10T09:52:51;8.97;;;7.97;;
8100;SDS011;4093;53.470;9.832;2023-05-10T09:55:20;9.55;;;7.85;;
8100;SDS011;4093;53.470;9.832;2023-05-10T09:57:59;10.18;;;8.60;;
8100;SDS011;4093;53.470;9.832;2023-05-10T10:00:28;9.80;;;8.90;;
8100;SDS011;4093;53.470;9.832;2023-05-10T10:03:02;9.40;;;8.32;;
8100;SDS011;4093;53.470;9.832;2023-05-10T10:05:31;9.30;;;8.40;;
8100;SDS011;4093;53.470;9.832;2023-05-10T10:08:03;10.10;;;8.40;;
8100;SDS011;4093;53.470;9.832;2023-05-10T10:10:32;9.47;;;8.47;;
8100;SDS011;4093;53.470;9.832;2023-05-10T10:13:02;11.50;;;9.40;;
8100;SDS011;4093;53.470;9.832;2023-05-10T10:15:31;9.60;;;8.70;;
8100;SDS011;4093;53.470;9.832;2023-05-10T10:18:00;10.23;;;9.13;;
8100;SDS011;4093;53.470;9.832;2023-05-10T10:20:29;9.77;;;8.87;;
8100;SDS011;4093;53.470;9.832;2023-05-10T10:22:57;10.43;;;9.33;;
8100;SDS011;4093;53.470;9.832;2023-05-10T10:25:25;10.70;;;9.27;;
8100;SDS011;4093;53.470;9.832;2023-05-10T10:27:59;11.50;;;8.82;;
8100;SDS011;4093;53.470;9.832;2023-05-10T10:30:39;11.77;;;9.47;;
8100;SDS011;4093;53.470;9.832;2023-05-10T10:33:17;10.87;;;9.07;;
8100;SDS011;4093;53.470;9.832;2023-05-10T10:35:58;9.70;;;8.07;;
8100;SDS011;4093;53.470;9.832;2023-05-10T10:38:35;10.30;;;9.30;;
8100;SDS011;4093;53.470;9.832;2023-05-10T10:41:09;9.67;;;8.67;;
8100;SDS011;4093;53.470;9.832;2023-05-10T10:43:39;12.47;;;8.40;;
8100;SDS011;4093;53.470;9.832;2023-05-10T10:46:10;11.20;;;8.60;;
8100;SDS011;4093;53.470;9.832;2023-05-10T10:48:47;10.57;;;9.57;;
8100;SDS011;4093;53.470;9.832;2023-05-10T10:51:16;10.37;;;9.37;;
8100;SDS011;4093;53.470;9.832;2023-05-10T10:53:43;10.53;;;9.13;;
8100;SDS011;4093;53.470;9.832;2023-05-10T10:56:11;10.57;;;9.57;;
8100;SDS011;4093;53.470;9.832;2023-05-10T10:58:48;11.13;;;9.90;;
8100;SDS011;4093;53.470;9.832;2023-05-10T11:01:17;10.80;;;9.70;;
8100;SDS011;4093;53.470;9.832;2023-05-10T11:06:44;13.43;;;9.70;;
8100;SDS011;4093;53.470;9.832;2023-05-10T11:09:12;12.97;;;9.10;;
8100;SDS011;4093;53.470;9.832;2023-05-10T11:11:51;9.98;;;9.00;;
8100;SDS011;4093;53.470;9.832;2023-05-10T11:14:23;10.97;;;9.87;;
8100;SDS011;4093;53.470;9.832;2023-05-10T11:16:51;10.80;;;9.70;;
8100;SDS011;4093;53.470;9.832;2023-05-10T11:19:19;12.30;;;11.20;;
8100;SDS011;4093;53.470;9.832;2023-05-10T11:21:47;11.93;;;10.73;;
8100;SDS011;4093;53.470;9.832;2023-05-10T11:24:17;11.43;;;9.87;;
8100;SDS011;4093;53.470;9.832;2023-05-10T11:26:45;10.97;;;9.77;;
8100;SDS011;4093;53.470;9.832;2023-05-10T11:29:13;13.20;;;10.60;;
8100;SDS011;4093;53.470;9.832;2023-05-10T11:31:45;10.73;;;9.63;;
8100;SDS011;4093;53.470;9.832;2023-05-10T11:34:22;13.47;;;10.67;;
8100;SDS011;4093;53.470;9.832;2023-05-10T11:36:51;11.30;;;9.47;;
8100;SDS011;4093;53.470;9.832;2023-05-10T11:39:20;11.93;;;10.55;;
8100;SDS011;4093;53.470;9.832;2023-05-10T11:41:48;10.93;;;9.82;;
8100;SDS011;4093;53.470;9.832;2023-05-10T11:44:16;9.82;;;8.82;;
8100;SDS011;4093;53.470;9.832;2023-05-10T11:46:45;9.85;;;8.85;;
8100;SDS011;4093;53.470;9.832;2023-05-10T11:49:13;13.37;;;9.30;;
8100;SDS011;4093;53.470;9.832;2023-05-10T11:51:41;10.33;;;9.20;;
8100;SDS011;4093;53.470;9.832;2023-05-10T11:54:10;9.27;;;8.37;;
8100;SDS011;4093;53.470;9.832;2023-05-10T11:56:39;9.20;;;8.37;;
8100;SDS011;4093;53.470;9.832;2023-05-10T11:59:07;8.50;;;7.70;;
8100;SDS011;4093;53.470;9.832;2023-05-10T12:01:35;8.87;;;7.30;;
8100;SDS011;4093;53.470;9.832;2023-05-10T12:04:04;8.45;;;7.65;;
8100;SDS011;4093;53.470;9.832;2023-05-10T12:06:35;9.07;;;7.25;;
8100;SDS011;4093;53.470;9.832;2023-05-10T12:09:07;7.40;;;6.72;;
8100;SDS011;4093;53.470;9.832;2023-05-10T12:11:36;6.80;;;6.10;;
8100;SDS011;4093;53.470;9.832;2023-05-10T12:14:09;7.55;;;6.85;;
8100;SDS011;4093;53.470;9.832;2023-05-10T12:16:36;6.13;;;5.63;;
8100;SDS011;4093;53.470;9.832;2023-05-10T12:19:06;7.87;;;6.57;;
8100;SDS011;4093;53.470;9.832;2023-05-10T12:21:33;7.90;;;6.77;;
8100;SDS011;4093;53.470;9.832;2023-05-10T12:24:02;6.80;;;6.10;;
8100;SDS011;4093;53.470;9.832;2023-05-10T12:26:31;6.70;;;6.10;;
8100;SDS011;4093;53.470;9.832;2023-05-10T12:29:11;7.20;;;6.50;;
8100;SDS011;4093;53.470;9.832;2023-05-10T12:31:51;7.93;;;7.13;;
8100;SDS011;4093;53.470;9.832;2023-05-10T12:34:25;7.95;;;7.15;;
8100;SDS011;4093;53.470;9.832;2023-05-10T12:36:53;7.93;;;7.23;;
8100;SDS011;4093;53.470;9.832;2023-05-10T12:39:22;7.53;;;6.82;;
8100;SDS011;4093;53.470;9.832;2023-05-10T12:41:50;8.10;;;7.35;;
8100;SDS011;4093;53.470;9.832;2023-05-10T12:44:18;9.45;;;8.45;;
8100;SDS011;4093;53.470;9.832;2023-05-10T12:46:48;9.53;;;8.63;;
8100;SDS011;4093;53.470;9.832;2023-05-10T12:49:16;9.18;;;8.27;;
8100;SDS011;4093;53.470;9.832;2023-05-10T12:51:46;8.43;;;7.63;;
8100;SDS011;4093;53.470;9.832;2023-05-10T12:54:14;9.20;;;8.20;;
8100;SDS011;4093;53.470;9.832;2023-05-10T12:56:41;8.90;;;8.07;;
8100;SDS011;4093;53.470;9.832;2023-05-10T12:59:10;9.57;;;7.85;;
8100;SDS011;4093;53.470;9.832;2023-05-10T13:01:37;8.93;;;8.10;;
8100;SDS011;4093;53.470;9.832;2023-05-10T13:04:05;8.93;;;7.68;;
8100;SDS011;4093;53.470;9.832;2023-05-10T13:06:33;7.95;;;7.13;;
8100;SDS011;4093;53.470;9.832;2023-05-10T13:09:03;8.57;;;7.85;;
8100;SDS011;4093;53.470;9.832;2023-05-10T13:11:30;8.48;;;7.60;;
8100;SDS011;4093;53.470;9.832;2023-05-10T13:13:58;9.13;;;8.25;;
8100;SDS011;4093;53.470;9.832;2023-05-10T13:16:26;8.77;;;7.88;;
8100;SDS011;4093;53.470;9.832;2023-05-10T13:18:54;8.88;;;7.78;;
8100;SDS011;4093;53.470;9.832;2023-05-10T13:21:22;9.68;;;7.90;;
8100;SDS011;4093;53.470;9.832;2023-05-10T13:23:50;8.30;;;7.25;;
8100;SDS011;4093;53.470;9.832;2023-05-10T13:26:19;8.38;;;7.65;;
8100;SDS011;4093;53.470;9.832;2023-05-10T13:28:47;8.57;;;7.72;;
8100;SDS011;4093;53.470;9.832;2023-05-10T13:31:16;9.85;;;8.10;;
8100;SDS011;4093;53.470;9.832;2023-05-10T13:33:43;8.35;;;7.57;;
8100;SDS011;4093;53.470;9.832;2023-05-10T13:36:11;8.90;;;7.97;;
8100;SDS011;4093;53.470;9.832;2023-05-10T13:38:39;8.95;;;8.15;;
8100;SDS011;4093;53.470;9.832;2023-05-10T13:41:06;7.93;;;7.13;;
8100;SDS011;4093;53.470;9.832;2023-05-10T13:43:35;8.75;;;7.85;;
8100;SDS011;4093;53.470;9.832;2023-05-10T13:46:03;8.98;;;7.78;;
8100;SDS011;4093;53.470;9.832;2023-05-10T13:48:31;8.40;;;7.18;;
8100;SDS011;4093;53.470;9.832;2023-05-10T13:50:59;10.10;;;6.70;;
8100;SDS011;4093;53.470;9.832;2023-05-10T13:53:27;8.63;;;7.57;;
8100;SDS011;4093;53.470;9.832;2023-05-10T13:55:55;7.38;;;6.68;;
8100;SDS011;4093;53.470;9.832;2023-05-10T13:58:23;7.47;;;6.78;;
8100;SDS011;4093;53.470;9.832;2023-05-10T14:00:52;7.70;;;7.00;;
8100;SDS011;4093;53.470;9.832;2023-05-10T14:03:19;7.72;;;6.97;;
8100;SDS011;4093;53.470;9.832;2023-05-10T14:05:47;8.07;;;6.70;;
8100;SDS011;4093;53.470;9.832;2023-05-10T14:08:15;7.30;;;6.60;;
8100;SDS011;4093;53.470;9.832;2023-05-10T14:10:43;7.63;;;6.93;;
8100;SDS011;4093;53.470;9.832;2023-05-10T14:13:11;7.65;;;6.63;;
8100;SDS011;4093;53.470;9.832;2023-05-10T14:15:39;7.20;;;6.60;;
8100;SDS011;4093;53.470;9.832;2023-05-10T14:18:08;7.32;;;6.63;;
8100;SDS011;4093;53.470;9.832;2023-05-10T14:20:36;7.05;;;6.45;;
8100;SDS011;4093;53.470;9.832;2023-05-10T14:23:03;6.25;;;5.65;;
8100;SDS011;4093;53.470;9.832;2023-05-10T14:25:31;7.15;;;6.43;;
8100;SDS011;4093;53.470;9.832;2023-05-10T14:27:59;8.52;;;6.28;;
8100;SDS011;4093;53.470;9.832;2023-05-10T14:30:27;6.63;;;5.82;;
8100;SDS011;4093;53.470;9.832;2023-05-10T14:32:54;7.00;;;6.30;;
8100;SDS011;4093;53.470;9.832;2023-05-10T14:35:26;6.40;;;5.53;;
8100;SDS011;4093;53.470;9.832;2023-05-10T14:37:53;6.22;;;5.63;;
8100;SDS011;4093;53.470;9.832;2023-05-10T14:40:21;6.10;;;5.53;;
8100;SDS011;4093;53.470;9.832;2023-05-10T14:42:49;6.28;;;5.30;;
8100;SDS011;4093;53.470;9.832;2023-05-10T14:45:18;5.97;;;5.47;;
8100;SDS011;4093;53.470;9.832;2023-05-10T14:47:47;7.72;;;5.53;;
8100;SDS011;4093;53.470;9.832;2023-05-10T14:50:15;6.07;;;5.40;;
8100;SDS011;4093;53.470;9.832;2023-05-10T14:53:03;5.32;;;4.82;;
8100;SDS011;4093;53.470;9.832;2023-05-10T14:55:31;5.63;;;5.13;;
8100;SDS011;4093;53.470;9.832;2023-05-10T14:57:58;4.93;;;4.53;;
8100;SDS011;4093;53.470;9.832;2023-05-10T15:00:26;5.38;;;4.47;;
8100;SDS011;4093;53.470;9.832;2023-05-10T15:02:57;5.25;;;4.75;;
8100;SDS011;4093;53.470;9.832;2023-05-10T15:05:26;4.95;;;4.50;;
8100;SDS011;4093;53.470;9.832;2023-05-10T15:07:54;6.90;;;4.88;;
8100;SDS011;4093;53.470;9.832;2023-05-10T15:10:23;4.40;;;4.00;;
8100;SDS011;4093;53.470;9.832;2023-05-10T15:12:51;4.78;;;4.38;;
8100;SDS011;4093;53.470;9.832;2023-05-10T15:15:19;4.97;;;4.47;;
8100;SDS011;4093;53.470;9.832;2023-05-10T15:17:47;5.70;;;4.60;;
8100;SDS011;4093;53.470;9.832;2023-05-10T15:20:15;5.13;;;4.50;;
8100;SDS011;4093;53.470;9.832;2023-05-10T15:22:42;5.57;;;5.07;;
8100;SDS011;4093;53.470;9.832;2023-05-10T15:25:10;6.15;;;5.35;;
8100;SDS011;4093;53.470;9.832;2023-05-10T15:27:39;6.30;;;5.70;;
8100;SDS011;4093;53.470;9.832;2023-05-10T15:30:10;6.70;;;6.00;;
8100;SDS011;4093;53.470;9.832;2023-05-10T15:32:38;7.03;;;6.40;;
8100;SDS011;4093;53.470;9.832;2023-05-10T15:35:07;7.28;;;6.60;;